createdAt,value
2022-12-27T00:05:58.427Z,17.80
2022-12-27T00:19:58.565Z,17.90
2022-12-27T00:33:58.501Z,15.00
2022-12-27T00:47:58.503Z,15.50
2022-12-27T01:01:58.587Z,13.70
2022-12-27T01:15:58.483Z,13.60
2022-12-27T01:29:58.507Z,12.20
2022-12-27T01:43:58.530Z,12.60
2022-12-27T01:57:58.539Z,10.90
2022-12-27T02:11:58.537Z,10.40
2022-12-27T02:25:58.544Z,10.30
2022-12-27T02:39:58.572Z,9.30
2022-12-27T02:53:58.832Z,8.50
2022-12-27T03:07:58.796Z,10.40
2022-12-27T03:21:58.928Z,9.70
2022-12-27T03:35:58.888Z,10.40
2022-12-27T03:49:58.913Z,10.90
2022-12-27T04:03:58.936Z,10.90
2022-12-27T04:17:59.075Z,9.70
2022-12-27T04:31:59.051Z,9.60
2022-12-27T04:45:59.055Z,8.40
2022-12-27T04:59:59.125Z,7.70
2022-12-27T05:13:59.124Z,7.70
2022-12-27T05:27:59.124Z,7.20
2022-12-27T05:41:59.142Z,6.60
2022-12-27T05:55:59.130Z,7.10
2022-12-27T06:09:59.141Z,6.80
2022-12-27T06:23:59.129Z,6.70
2022-12-27T06:37:59.195Z,6.30
2022-12-27T06:52:59.184Z,5.80
2022-12-27T07:07:59.248Z,5.20
2022-12-27T07:22:59.314Z,4.70
2022-12-27T07:37:59.323Z,6.00
2022-12-27T07:52:59.309Z,7.40
2022-12-27T08:07:59.344Z,7.60
2022-12-27T08:22:59.547Z,6.40
2022-12-27T08:37:59.347Z,6.65
2022-12-27T08:52:59.378Z,7.20
2022-12-27T09:07:59.453Z,7.60
2022-12-27T09:22:59.407Z,6.70
2022-12-27T09:37:59.439Z,6.80
2022-12-27T09:53:59.469Z,6.50
2022-12-27T10:09:59.468Z,5.80
2022-12-27T10:25:59.514Z,7.50
2022-12-27T10:40:59.527Z,7.90
2022-12-27T10:55:59.500Z,7.00
2022-12-27T11:10:59.506Z,6.10
2022-12-27T11:24:59.515Z,6.70
2022-12-27T11:38:59.532Z,7.10
2022-12-27T11:53:59.522Z,19.80
2022-12-27T12:07:59.603Z,25.80
2022-12-27T12:21:59.666Z,25.90
2022-12-27T12:35:59.707Z,24.60
2022-12-27T12:49:59.895Z,23.60
2022-12-27T13:03:59.960Z,21.80
2022-12-27T13:18:00.020Z,17.10
2022-12-27T13:32:00.246Z,14.80
2022-12-27T13:46:00.349Z,15.70
2022-12-27T14:00:00.482Z,14.70
2022-12-27T14:14:00.574Z,12.50
2022-12-27T14:28:00.684Z,12.60
2022-12-27T14:42:00.729Z,10.40
2022-12-27T14:56:00.853Z,10.20
2022-12-27T15:11:00.885Z,9.80
2022-12-27T15:25:01.099Z,9.00
2022-12-27T15:39:01.097Z,10.50
2022-12-27T15:54:01.112Z,10.10
2022-12-27T16:08:01.144Z,13.20
2022-12-27T16:22:01.155Z,12.00
2022-12-27T16:35:01.184Z,11.80
2022-12-27T16:48:01.191Z,12.70
2022-12-27T17:01:01.210Z,10.80
2022-12-27T17:14:01.191Z,9.80
2022-12-27T17:27:01.175Z,9.00
2022-12-27T17:40:01.222Z,9.30
2022-12-27T17:53:01.261Z,7.60
2022-12-27T18:06:01.229Z,7.40
2022-12-27T18:19:01.248Z,7.30
2022-12-27T18:32:01.317Z,7.95
2022-12-27T18:45:01.277Z,6.40
2022-12-27T18:58:01.337Z,7.10
2022-12-27T19:11:01.286Z,8.10
2022-12-27T19:24:01.309Z,7.80
2022-12-27T19:37:01.293Z,7.50
2022-12-27T19:50:01.424Z,8.70
2022-12-27T20:03:01.475Z,9.20
2022-12-27T20:16:01.409Z,11.40
2022-12-27T20:29:01.508Z,20.40
2022-12-27T20:42:01.494Z,23.30
2022-12-27T20:55:01.481Z,26.20
2022-12-27T21:08:01.483Z,33.20
2022-12-27T21:21:02.241Z,31.30
2022-12-27T21:34:01.647Z,28.80
2022-12-27T21:47:01.634Z,29.65
2022-12-27T22:00:01.856Z,29.30
2022-12-27T22:13:01.854Z,28.80
2022-12-27T22:26:01.865Z,26.80
2022-12-27T22:40:02.337Z,28.55
2022-12-27T22:53:02.380Z,25.00
2022-12-27T23:06:02.372Z,22.80
2022-12-27T23:19:02.474Z,19.80
2022-12-27T23:32:02.572Z,19.90
2022-12-27T23:45:02.472Z,18.10
2022-12-27T23:58:02.473Z,17.60
